createdAt,value
2018-08-17T00:00:17.229Z,0
2018-08-17T00:00:57.622Z,0
2018-08-17T00:01:38.019Z,0
2018-08-17T00:04:05.943Z,0
2018-08-17T00:04:46.108Z,0
2018-08-17T00:05:26.684Z,0
2018-08-17T00:06:06.953Z,0
2018-08-17T00:06:47.311Z,0
2018-08-17T00:07:27.723Z,0
2018-08-17T00:08:08.126Z,0
2018-08-17T00:08:48.554Z,0
2018-08-17T00:09:28.943Z,0
2018-08-17T00:10:09.347Z,0
2018-08-17T00:10:49.710Z,0
2018-08-17T00:11:30.106Z,0
2018-08-17T00:12:10.491Z,0
2018-08-17T00:12:50.928Z,0
2018-08-17T00:13:31.336Z,0
2018-08-17T00:14:11.735Z,0
2018-08-17T00:14:52.177Z,0
2018-08-17T00:15:32.477Z,0
2018-08-17T00:16:12.908Z,0
2018-08-17T00:16:53.262Z,0
2018-08-17T00:17:33.671Z,0
2018-08-17T00:18:14.129Z,0
2018-08-17T00:18:54.573Z,0
2018-08-17T00:19:34.908Z,0
2018-08-17T00:20:15.327Z,0
2018-08-17T00:20:55.708Z,0
2018-08-17T00:21:36.094Z,0
2018-08-17T00:22:16.487Z,0
2018-08-17T00:22:56.952Z,0
2018-08-17T00:23:37.359Z,0
2018-08-17T00:24:17.777Z,0
2018-08-17T00:24:58.150Z,0
2018-08-17T00:25:38.602Z,0
2018-08-17T00:26:19.000Z,0
2018-08-17T00:26:59.345Z,0
2018-08-17T00:27:39.746Z,0
2018-08-17T00:28:20.207Z,0
2018-08-17T00:29:00.574Z,0
2018-08-17T00:29:40.973Z,0
2018-08-17T00:30:21.406Z,0
2018-08-17T00:31:01.732Z,0
2018-08-17T00:31:42.175Z,0
2018-08-17T00:32:22.550Z,0
2018-08-17T00:33:03.038Z,0
2018-08-17T00:33:43.419Z,0
2018-08-17T00:34:23.755Z,0
2018-08-17T00:35:04.150Z,0
2018-08-17T00:35:44.580Z,0
2018-08-17T00:36:25.076Z,0
2018-08-17T00:37:05.468Z,0
2018-08-17T00:37:45.825Z,0
2018-08-17T00:38:26.255Z,0
2018-08-17T00:39:06.651Z,0
2018-08-17T00:39:47.086Z,0
2018-08-17T00:40:27.468Z,0
2018-08-17T00:41:07.897Z,0
2018-08-17T00:41:48.332Z,0
2018-08-17T00:42:28.813Z,0
2018-08-17T00:43:09.118Z,0
2018-08-17T00:43:49.636Z,0
2018-08-17T00:44:29.968Z,0
2018-08-17T00:45:10.313Z,0
2018-08-17T00:45:50.764Z,0
2018-08-17T00:46:31.227Z,0
2018-08-17T00:47:11.533Z,0
2018-08-17T00:47:51.888Z,0
2018-08-17T00:48:32.339Z,0
2018-08-17T00:49:12.825Z,0
2018-08-17T00:49:53.189Z,0
2018-08-17T00:50:33.569Z,0
2018-08-17T00:51:14.002Z,0
2018-08-17T00:51:54.474Z,0
2018-08-17T00:52:34.786Z,0
2018-08-17T00:53:15.116Z,0
2018-08-17T00:53:55.628Z,0
2018-08-17T00:54:36.022Z,0
2018-08-17T00:55:16.522Z,0
2018-08-17T00:55:56.849Z,0
2018-08-17T00:56:37.269Z,0
2018-08-17T00:57:17.665Z,0
2018-08-17T00:57:58.127Z,0
2018-08-17T00:58:38.544Z,0
2018-08-17T00:59:18.883Z,0
2018-08-17T00:59:59.317Z,0
2018-08-17T01:00:39.691Z,0
2018-08-17T01:01:20.099Z,0
2018-08-17T01:02:00.532Z,0
2018-08-17T01:02:40.971Z,0
2018-08-17T01:03:21.430Z,0
2018-08-17T01:04:01.746Z,0
2018-08-17T01:04:42.159Z,0
2018-08-17T01:05:22.549Z,0
2018-08-17T01:06:03.017Z,0
2018-08-17T01:06:43.416Z,0
2018-08-17T01:07:24.006Z,0
2018-08-17T01:08:04.380Z,0
2018-08-17T01:08:44.801Z,0
2018-08-17T01:09:25.267Z,0
2018-08-17T01:10:05.637Z,0
2018-08-17T01:10:46.076Z,0
2018-08-17T01:11:26.465Z,0
2018-08-17T01:12:06.910Z,0
2018-08-17T01:12:47.401Z,0
2018-08-17T01:13:27.674Z,0
2018-08-17T01:14:08.112Z,0
2018-08-17T01:14:48.575Z,0
2018-08-17T01:15:28.970Z,0
2018-08-17T01:16:09.421Z,0
2018-08-17T01:16:49.906Z,0
2018-08-17T01:17:30.195Z,0
2018-08-17T01:18:10.630Z,0
2018-08-17T01:18:50.994Z,0
2018-08-17T01:19:31.686Z,0
2018-08-17T01:20:11.854Z,0
2018-08-17T01:20:52.270Z,0
2018-08-17T01:21:32.748Z,0
2018-08-17T01:22:13.116Z,0
2018-08-17T01:22:53.480Z,0
2018-08-17T01:23:33.899Z,0
2018-08-17T01:24:14.286Z,0
2018-08-17T01:24:54.724Z,0
2018-08-17T01:25:35.079Z,0
2018-08-17T01:26:15.459Z,0
2018-08-17T01:26:55.902Z,0
2018-08-17T01:27:36.325Z,0
2018-08-17T01:28:16.699Z,0
2018-08-17T01:28:57.700Z,0
2018-08-17T01:29:38.070Z,0
2018-08-17T01:30:18.423Z,0
2018-08-17T01:30:58.897Z,0
2018-08-17T01:31:39.404Z,0
2018-08-17T01:32:19.777Z,0
2018-08-17T01:33:00.110Z,0
2018-08-17T01:33:40.583Z,0
2018-08-17T01:34:20.948Z,0
2018-08-17T01:35:01.306Z,0
2018-08-17T01:35:41.810Z,0
2018-08-17T01:36:22.124Z,0
2018-08-17T01:37:02.580Z,0
2018-08-17T01:37:42.934Z,0
2018-08-17T01:38:23.321Z,0
2018-08-17T01:39:03.786Z,0
2018-08-17T01:39:44.599Z,0
2018-08-17T01:40:25.340Z,0
2018-08-17T01:41:06.247Z,0
2018-08-17T01:41:50.785Z,0
2018-08-17T01:42:31.116Z,0
2018-08-17T01:43:11.592Z,0
2018-08-17T01:43:52.113Z,0
2018-08-17T01:44:32.942Z,0
2018-08-17T01:45:13.273Z,0
2018-08-17T01:45:53.718Z,0
2018-08-17T01:46:34.960Z,0
2018-08-17T01:47:15.631Z,0
2018-08-17T01:47:57.092Z,0
2018-08-17T01:48:37.478Z,0
2018-08-17T01:49:18.504Z,0
2018-08-17T01:49:59.208Z,0
2018-08-17T01:50:39.916Z,0
2018-08-17T01:51:21.348Z,0
2018-08-17T01:52:01.889Z,0
2018-08-17T01:52:43.111Z,0
2018-08-17T01:53:23.422Z,0
2018-08-17T01:54:04.515Z,0
2018-08-17T01:54:45.968Z,0
2018-08-17T01:55:26.369Z,0
2018-08-17T01:56:07.230Z,0
2018-08-17T01:56:47.603Z,0
2018-08-17T01:57:28.366Z,0
2018-08-17T01:58:08.809Z,0
2018-08-17T01:58:49.295Z,0
2018-08-17T01:59:29.722Z,0
2018-08-17T02:00:10.154Z,0
2018-08-17T02:05:07.771Z,0
2018-08-17T02:05:48.053Z,0
2018-08-17T02:06:28.489Z,0
2018-08-17T02:07:09.510Z,0
2018-08-17T02:07:49.844Z,0
2018-08-17T02:08:30.274Z,0
2018-08-17T02:09:11.013Z,0
2018-08-17T02:09:51.206Z,0
2018-08-17T02:10:31.683Z,0
2018-08-17T02:11:12.156Z,0
2018-08-17T02:11:52.933Z,0
2018-08-17T02:12:33.323Z,0
2018-08-17T02:13:13.801Z,0
2018-08-17T02:13:54.190Z,0
2018-08-17T02:14:34.822Z,0
2018-08-17T02:15:15.177Z,0
2018-08-17T02:15:55.949Z,0
2018-08-17T02:16:36.370Z,0
2018-08-17T02:17:16.775Z,0
2018-08-17T02:17:57.229Z,0
2018-08-17T02:18:37.777Z,0
2018-08-17T02:19:18.440Z,0
2018-08-17T02:19:59.519Z,0
2018-08-17T02:20:40.156Z,0
2018-08-17T02:21:21.080Z,0
2018-08-17T02:22:02.586Z,0
2018-08-17T02:22:42.972Z,0
2018-08-17T02:23:23.478Z,0
2018-08-17T02:24:04.088Z,0
2018-08-17T02:24:45.414Z,0
2018-08-17T02:25:26.462Z,0
2018-08-17T02:26:06.295Z,0
2018-08-17T02:26:46.729Z,0
2018-08-17T02:27:27.548Z,0
2018-08-17T02:28:08.524Z,0
2018-08-17T02:28:49.068Z,0
2018-08-17T02:29:29.712Z,0
2018-08-17T02:30:10.147Z,0
2018-08-17T02:30:50.762Z,0
2018-08-17T02:31:31.262Z,0
2018-08-17T02:32:12.481Z,0
2018-08-17T02:32:52.810Z,0
2018-08-17T02:33:33.261Z,0
2018-08-17T02:34:13.867Z,0
2018-08-17T02:34:54.409Z,0
2018-08-17T02:35:36.045Z,0
2018-08-17T02:36:16.426Z,0
2018-08-17T02:36:57.220Z,0
2018-08-17T02:37:37.897Z,0
2018-08-17T02:38:18.211Z,0
2018-08-17T02:38:59.442Z,0
2018-08-17T02:39:39.887Z,0
2018-08-17T02:40:20.359Z,0
2018-08-17T02:41:00.867Z,0
2018-08-17T02:41:41.276Z,0
2018-08-17T02:42:21.897Z,0
2018-08-17T02:43:02.300Z,0
2018-08-17T02:43:42.744Z,0
2018-08-17T02:44:26.933Z,0
2018-08-17T02:45:08.690Z,0
2018-08-17T02:45:49.594Z,0
2018-08-17T02:46:29.734Z,0
2018-08-17T02:47:10.311Z,0
2018-08-17T02:47:50.658Z,0
2018-08-17T02:48:31.343Z,0
2018-08-17T02:49:11.758Z,0
2018-08-17T02:49:52.612Z,0
2018-08-17T02:50:33.057Z,0
2018-08-17T02:51:13.565Z,0
2018-08-17T02:51:54.138Z,0
2018-08-17T02:52:34.785Z,0
2018-08-17T02:53:17.827Z,0
2018-08-17T02:53:58.002Z,0
2018-08-17T02:54:38.461Z,0
2018-08-17T02:55:19.112Z,0
2018-08-17T02:56:00.853Z,0
2018-08-17T02:56:41.322Z,0
2018-08-17T02:57:22.343Z,0
2018-08-17T02:58:02.891Z,0
2018-08-17T02:58:43.529Z,0
2018-08-17T02:59:24.341Z,0
2018-08-17T03:00:04.758Z,0
2018-08-17T03:00:45.238Z,0
2018-08-17T03:01:25.531Z,0
2018-08-17T03:02:06.741Z,0
2018-08-17T03:02:46.741Z,0
2018-08-17T03:03:27.150Z,0
2018-08-17T03:04:07.734Z,0
2018-08-17T03:04:48.300Z,0
2018-08-17T03:08:50.936Z,0
2018-08-17T03:09:32.279Z,0
2018-08-17T03:10:13.252Z,0
2018-08-17T03:10:53.573Z,0
2018-08-17T03:11:36.628Z,0
2018-08-17T03:12:22.409Z,0
2018-08-17T03:13:07.214Z,0
2018-08-17T03:13:47.644Z,0
2018-08-17T03:14:30.702Z,0
2018-08-17T03:15:15.049Z,0
2018-08-17T03:18:43.982Z,0
2018-08-17T03:19:23.099Z,0
2018-08-17T03:20:03.564Z,0
2018-08-17T03:20:44.180Z,0
2018-08-17T03:21:24.606Z,0
2018-08-17T03:22:05.126Z,0
2018-08-17T03:22:45.521Z,0
2018-08-17T03:23:25.993Z,0
2018-08-17T03:24:06.369Z,0
2018-08-17T03:24:46.889Z,0
2018-08-17T03:25:27.762Z,0
2018-08-17T03:26:08.266Z,0
2018-08-17T03:26:48.784Z,0
2018-08-17T03:27:29.094Z,0
2018-08-17T03:28:09.512Z,0
2018-08-17T03:28:49.840Z,0
2018-08-17T03:29:30.400Z,0
2018-08-17T03:30:10.748Z,0
2018-08-17T03:30:51.073Z,0
2018-08-17T03:31:31.505Z,0
2018-08-17T03:32:11.944Z,0
2018-08-17T03:32:53.143Z,0
2018-08-17T03:33:34.542Z,0
2018-08-17T03:34:15.068Z,0
2018-08-17T03:34:55.503Z,0
2018-08-17T03:35:36.014Z,0
2018-08-17T03:36:16.375Z,0
2018-08-17T03:36:56.750Z,0
2018-08-17T03:37:37.204Z,0
2018-08-17T03:38:17.593Z,0
2018-08-17T03:38:58.009Z,0
2018-08-17T03:39:38.355Z,0
2018-08-17T03:40:18.788Z,0
2018-08-17T03:40:59.227Z,0
2018-08-17T03:41:39.662Z,0
2018-08-17T03:42:20.295Z,0
2018-08-17T03:43:00.607Z,0
2018-08-17T03:43:41.025Z,0
2018-08-17T03:44:24.345Z,0
2018-08-17T03:45:04.741Z,0
2018-08-17T03:45:45.269Z,0
2018-08-17T03:46:25.601Z,0
2018-08-17T03:47:06.028Z,0
2018-08-17T03:47:46.666Z,0
2018-08-17T03:48:27.251Z,0
2018-08-17T03:49:08.500Z,0
2018-08-17T03:49:48.315Z,0
2018-08-17T03:50:28.689Z,0
2018-08-17T03:51:10.004Z,0
2018-08-17T03:51:50.370Z,0
2018-08-17T03:52:31.026Z,0
2018-08-17T03:53:12.872Z,0
2018-08-17T03:53:53.187Z,0
2018-08-17T03:54:33.738Z,0
2018-08-17T03:55:14.090Z,0
2018-08-17T03:55:54.515Z,0
2018-08-17T03:56:35.085Z,0
2018-08-17T03:57:15.486Z,0
2018-08-17T03:59:39.336Z,0
2018-08-17T04:00:20.011Z,0
2018-08-17T04:01:00.493Z,4
2018-08-17T04:01:40.970Z,4
2018-08-17T04:02:21.711Z,0
2018-08-17T04:03:02.219Z,4
2018-08-17T04:03:43.041Z,4
2018-08-17T04:04:23.448Z,4
2018-08-17T04:05:04.056Z,4
2018-08-17T04:05:44.360Z,4
2018-08-17T04:06:24.709Z,4
2018-08-17T04:07:05.249Z,8
2018-08-17T04:07:45.705Z,8
2018-08-17T04:08:26.079Z,8
2018-08-17T04:09:06.868Z,8
2018-08-17T04:09:47.419Z,8
2018-08-17T04:10:27.882Z,8
2018-08-17T04:11:08.199Z,12
2018-08-17T04:11:49.137Z,12
2018-08-17T04:12:29.812Z,12
2018-08-17T04:13:10.418Z,12
2018-08-17T04:13:50.997Z,12
2018-08-17T04:14:32.495Z,12
2018-08-17T04:15:13.013Z,12
2018-08-17T04:15:53.449Z,8
2018-08-17T04:16:34.473Z,12
2018-08-17T04:17:15.427Z,16
2018-08-17T04:17:55.571Z,20
2018-08-17T04:18:36.125Z,20
2018-08-17T04:19:16.921Z,20
2018-08-17T04:19:56.970Z,24
2018-08-17T04:20:37.432Z,28
2018-08-17T04:21:18.034Z,28
2018-08-17T04:21:58.408Z,32
2018-08-17T04:22:39.675Z,36
2018-08-17T04:23:20.519Z,36
2018-08-17T04:24:00.942Z,40
2018-08-17T04:24:41.412Z,44
2018-08-17T04:25:22.592Z,48
2018-08-17T04:26:03.504Z,48
2018-08-17T04:26:44.205Z,48
2018-08-17T04:27:24.576Z,52
2018-08-17T04:28:04.941Z,56
2018-08-17T05:11:57.928Z,168
2018-08-17T05:12:38.294Z,176
2018-08-17T05:13:18.692Z,192
2018-08-17T05:16:41.164Z,228
2018-08-17T05:17:21.592Z,228
2018-08-17T05:18:01.987Z,224
2018-08-17T05:18:42.346Z,216
2018-08-17T05:19:22.761Z,200
2018-08-17T05:20:03.210Z,188
2018-08-17T05:20:43.601Z,168
2018-08-17T05:21:24.020Z,156
2018-08-17T05:22:04.750Z,152
2018-08-17T05:22:45.218Z,140
2018-08-17T05:23:29.052Z,140
2018-08-17T05:24:06.622Z,140
2018-08-17T05:24:48.211Z,128
2018-08-17T05:25:29.626Z,120
2018-08-17T05:26:13.434Z,116
2018-08-17T05:26:54.289Z,116
2018-08-17T05:27:36.180Z,112
2018-08-17T05:28:18.570Z,104
2018-08-17T05:28:59.031Z,108
2018-08-17T05:29:39.669Z,116
2018-08-17T05:30:20.765Z,128
2018-08-17T05:31:01.198Z,132
2018-08-17T05:31:43.622Z,116
2018-08-17T05:34:09.533Z,80
2018-08-17T05:35:03.216Z,56
2018-08-17T05:35:56.769Z,52
2018-08-17T05:36:50.634Z,44
2018-08-17T05:37:42.644Z,36
2018-08-17T05:38:34.917Z,32
2018-08-17T05:39:28.691Z,28
2018-08-17T05:40:20.283Z,28
2018-08-17T05:41:00.322Z,28
2018-08-17T05:41:40.688Z,24
2018-08-17T05:42:21.178Z,24
2018-08-17T05:43:01.548Z,24
2018-08-17T05:43:42.437Z,20
2018-08-17T05:44:22.539Z,20
2018-08-17T05:45:03.026Z,16
2018-08-17T05:45:43.452Z,16
2018-08-17T05:46:23.822Z,16
2018-08-17T05:47:04.406Z,12
2018-08-17T05:47:44.918Z,16
2018-08-17T05:48:26.097Z,12
2018-08-17T05:49:06.554Z,8
2018-08-17T05:49:46.904Z,12
2018-08-17T05:50:27.325Z,16
2018-08-17T05:51:07.760Z,28
2018-08-17T05:51:48.304Z,44
2018-08-17T05:52:29.756Z,52
2018-08-17T05:53:11.225Z,64
2018-08-17T05:53:51.524Z,76
2018-08-17T05:54:32.837Z,80
2018-08-17T05:55:13.092Z,92
2018-08-17T05:56:04.128Z,108
2018-08-17T05:56:52.370Z,120
2018-08-17T06:03:44.917Z,196
2018-08-17T06:08:55.178Z,184
2018-08-17T06:09:36.410Z,180
2018-08-17T06:10:20.828Z,192
2018-08-17T06:10:58.761Z,208
2018-08-17T06:11:39.296Z,220
2018-08-17T06:12:20.298Z,244
2018-08-17T06:13:00.930Z,264
2018-08-17T06:13:45.083Z,292
2018-08-17T06:14:25.520Z,336
2018-08-17T06:15:06.076Z,352
2018-08-17T06:15:46.594Z,360
2018-08-17T06:16:26.940Z,356
2018-08-17T06:17:07.711Z,352
2018-08-17T06:17:48.509Z,336
2018-08-17T06:18:28.871Z,308
2018-08-17T06:19:09.258Z,288
2018-08-17T06:19:49.612Z,260
2018-08-17T06:20:29.990Z,228
2018-08-17T06:21:10.512Z,204
2018-08-17T06:21:50.881Z,184
2018-08-17T06:22:31.561Z,172
2018-08-17T06:23:14.382Z,156
2018-08-17T06:23:56.854Z,144
2018-08-17T06:24:38.143Z,132
2018-08-17T06:25:18.709Z,132
2018-08-17T06:25:59.567Z,124
2018-08-17T06:26:40.003Z,128
2018-08-17T06:27:23.583Z,128
2018-08-17T06:28:03.769Z,132
2018-08-17T06:28:44.303Z,132
2018-08-17T06:29:24.969Z,128
2018-08-17T06:30:09.282Z,128
2018-08-17T06:30:49.589Z,124
2018-08-17T06:31:31.688Z,128
2018-08-17T06:33:50.744Z,148
2018-08-17T06:34:31.174Z,156
2018-08-17T06:35:11.606Z,160
2018-08-17T06:35:52.060Z,164
2018-08-17T06:36:32.490Z,168
2018-08-17T06:37:12.955Z,172
2018-08-17T06:37:53.481Z,180
2018-08-17T06:38:33.876Z,196
2018-08-17T06:39:14.504Z,220
2018-08-17T06:39:54.955Z,240
2018-08-17T06:40:35.348Z,248
2018-08-17T06:41:15.768Z,244
2018-08-17T06:41:56.251Z,236
2018-08-17T06:42:36.556Z,232
2018-08-17T06:43:18.431Z,224
2018-08-17T06:44:13.917Z,220
2018-08-17T06:44:55.347Z,224
2018-08-17T06:45:35.172Z,232
2018-08-17T06:46:16.838Z,252
2018-08-17T06:46:57.028Z,272
2018-08-17T06:47:38.469Z,288
2018-08-17T06:48:18.867Z,300
2018-08-17T06:49:00.526Z,320
2018-08-17T06:49:40.884Z,348
2018-08-17T06:50:21.173Z,372
2018-08-17T06:51:01.635Z,404
2018-08-17T06:51:41.999Z,436
2018-08-17T06:52:22.510Z,472
2018-08-17T06:53:03.115Z,484
2018-08-17T06:53:43.337Z,484
2018-08-17T06:54:23.824Z,488
2018-08-17T06:55:04.306Z,500
2018-08-17T06:55:44.721Z,508
2018-08-17T06:56:25.219Z,520
2018-08-17T06:57:05.846Z,536
2018-08-17T06:57:46.157Z,552
2018-08-17T06:58:27.517Z,572
2018-08-17T06:59:08.156Z,592
2018-08-17T06:59:48.559Z,604
2018-08-17T07:00:28.998Z,608
2018-08-17T07:01:09.887Z,592
2018-08-17T07:01:51.890Z,584
2018-08-17T07:02:34.516Z,596
2018-08-17T07:03:15.893Z,628
2018-08-17T07:03:56.499Z,684
2018-08-17T07:04:37.212Z,700
2018-08-17T07:05:17.550Z,680
2018-08-17T07:05:57.966Z,684
2018-08-17T07:06:38.295Z,700
2018-08-17T07:07:18.732Z,712
2018-08-17T07:07:59.119Z,736
2018-08-17T07:08:39.719Z,760
2018-08-17T07:09:20.407Z,784
2018-08-17T07:10:00.562Z,800
2018-08-17T07:10:40.965Z,812
2018-08-17T07:11:21.396Z,784
2018-08-17T07:12:02.343Z,760
2018-08-17T07:12:42.466Z,760
2018-08-17T07:13:23.182Z,752
2018-08-17T07:14:03.880Z,756
2018-08-17T07:14:44.079Z,768
2018-08-17T07:15:24.514Z,752
2018-08-17T07:16:04.945Z,708
2018-08-17T07:16:45.534Z,668
2018-08-17T07:17:25.850Z,628
2018-08-17T07:18:06.247Z,588
2018-08-17T07:18:46.636Z,568
2018-08-17T07:19:27.088Z,564
2018-08-17T07:20:07.429Z,568
2018-08-17T07:20:47.891Z,580
2018-08-17T07:21:28.319Z,584
2018-08-17T07:22:08.714Z,592
2018-08-17T07:22:49.159Z,628
2018-08-17T07:23:29.494Z,684
2018-08-17T07:24:09.964Z,728
2018-08-17T07:24:50.339Z,752
2018-08-17T07:25:30.759Z,780
2018-08-17T07:26:11.220Z,808
2018-08-17T07:26:51.630Z,848
2018-08-17T07:27:32.008Z,924
2018-08-17T07:28:15.618Z,1028
2018-08-17T07:28:56.345Z,1116
2018-08-17T07:29:36.045Z,1140
2018-08-17T07:30:16.455Z,1108
2018-08-17T07:30:56.880Z,1084
2018-08-17T07:31:37.311Z,1044
2018-08-17T07:32:18.018Z,976
2018-08-17T07:32:58.803Z,924
2018-08-17T07:33:40.000Z,880
2018-08-17T07:34:19.864Z,832
2018-08-17T07:35:00.250Z,796
2018-08-17T07:35:40.748Z,772
2018-08-17T07:36:21.073Z,740
2018-08-17T07:37:01.492Z,720
2018-08-17T07:37:41.924Z,704
2018-08-17T07:38:22.351Z,688
2018-08-17T07:39:02.774Z,688
2018-08-17T07:39:43.313Z,700
2018-08-17T07:40:23.862Z,716
2018-08-17T07:41:04.865Z,748
2018-08-17T07:41:44.791Z,800
2018-08-17T07:42:25.275Z,876
2018-08-17T07:43:05.746Z,968
2018-08-17T07:43:46.153Z,1072
2018-08-17T07:44:27.037Z,1272
2018-08-17T07:45:07.496Z,1784
2018-08-17T07:45:48.514Z,1828
2018-08-17T07:46:29.931Z,1972
2018-08-17T07:47:11.537Z,2116
2018-08-17T07:47:55.756Z,2144
2018-08-17T07:48:36.418Z,1948
2018-08-17T07:49:16.830Z,1708
2018-08-17T07:49:57.215Z,1516
2018-08-17T07:50:37.550Z,1420
2018-08-17T07:51:18.086Z,1408
2018-08-17T07:51:59.788Z,1348
2018-08-17T07:52:40.276Z,1252
2018-08-17T07:53:23.278Z,1204
2018-08-17T07:54:09.249Z,1180
2018-08-17T07:54:48.848Z,1212
2018-08-17T07:55:34.566Z,1264
2018-08-17T07:58:46.529Z,2808
2018-08-17T07:59:27.138Z,2532
2018-08-17T08:00:07.432Z,3004
2018-08-17T08:00:47.993Z,2884
2018-08-17T08:01:28.434Z,3916
2018-08-17T08:02:09.504Z,3964
2018-08-17T08:02:51.458Z,4044
2018-08-17T08:03:32.889Z,4924
2018-08-17T08:04:13.381Z,4928
2018-08-17T08:04:55.342Z,4944
2018-08-17T08:05:35.743Z,4436
2018-08-17T08:06:16.343Z,3776
2018-08-17T08:06:57.755Z,3048
2018-08-17T08:07:37.808Z,2700
2018-08-17T08:08:19.261Z,2284
2018-08-17T08:08:59.752Z,2024
2018-08-17T08:09:40.368Z,1876
2018-08-17T08:10:22.234Z,1800
2018-08-17T08:11:03.017Z,1708
2018-08-17T08:11:42.461Z,1572
2018-08-17T08:12:23.034Z,1448
2018-08-17T08:13:03.488Z,1352
2018-08-17T08:13:44.073Z,1276
2018-08-17T08:14:24.569Z,1204
2018-08-17T08:15:06.484Z,1120
2018-08-17T08:15:47.026Z,1052
2018-08-17T08:16:27.501Z,1012
2018-08-17T08:17:07.911Z,976
2018-08-17T08:17:48.445Z,956
2018-08-17T08:18:29.414Z,936
2018-08-17T08:19:09.951Z,920
2018-08-17T08:19:50.337Z,920
2018-08-17T08:20:31.894Z,924
2018-08-17T08:21:12.983Z,940
2018-08-17T08:21:53.771Z,972
2018-08-17T08:22:34.163Z,1004
2018-08-17T08:23:14.500Z,1044
2018-08-17T08:23:55.263Z,1096
2018-08-17T08:24:36.363Z,1160
2018-08-17T08:25:19.287Z,1240
2018-08-17T08:26:00.014Z,1304
2018-08-17T08:26:40.765Z,1344
2018-08-17T08:27:22.235Z,1372
2018-08-17T08:31:54.858Z,1308
2018-08-17T08:32:53.127Z,1284
2018-08-17T08:33:46.312Z,1304
2018-08-17T08:34:43.659Z,1408
2018-08-17T08:35:36.984Z,1560
2018-08-17T08:36:32.654Z,1776
2018-08-17T08:37:36.802Z,1836
2018-08-17T08:38:34.939Z,1688
2018-08-17T08:39:32.696Z,1464
2018-08-17T08:40:28.381Z,1340
2018-08-17T08:41:28.000Z,1172
2018-08-17T08:42:30.665Z,1060
2018-08-17T08:43:41.754Z,964
2018-08-17T08:44:37.360Z,860
2018-08-17T08:45:32.490Z,792
2018-08-17T08:46:27.264Z,768
2018-08-17T08:47:21.514Z,784
2018-08-17T08:48:15.197Z,788
2018-08-17T08:49:10.981Z,760
2018-08-17T08:50:06.095Z,828
2018-08-17T08:51:02.582Z,1012
2018-08-17T08:51:59.142Z,1188
2018-08-17T08:52:59.497Z,1348
2018-08-17T08:53:57.294Z,1488
2018-08-17T08:56:50.465Z,1704
2018-08-17T08:57:29.285Z,1596
2018-08-17T08:58:09.989Z,1472
2018-08-17T09:01:07.924Z,1276
2018-08-17T09:02:18.887Z,1268
2018-08-17T09:03:32.525Z,1156
2018-08-17T09:06:35.910Z,924
2018-08-17T09:07:16.715Z,892
2018-08-17T09:07:57.390Z,880
2018-08-17T09:08:37.858Z,860
2018-08-17T09:09:18.645Z,808
2018-08-17T09:09:59.778Z,760
2018-08-17T09:10:41.396Z,704
2018-08-17T09:11:21.883Z,668
2018-08-17T09:12:02.622Z,644
2018-08-17T09:12:46.197Z,624
2018-08-17T09:13:27.128Z,616
2018-08-17T09:14:09.541Z,612
2018-08-17T09:14:49.813Z,592
2018-08-17T09:15:30.572Z,572
2018-08-17T09:16:12.089Z,560
2018-08-17T09:16:52.645Z,568
2018-08-17T09:17:36.819Z,596
2018-08-17T09:21:40.934Z,636
2018-08-17T09:22:21.261Z,688
2018-08-17T09:23:01.535Z,700
2018-08-17T09:23:43.361Z,760
2018-08-17T09:24:24.045Z,872
2018-08-17T09:25:04.982Z,908
2018-08-17T09:25:45.164Z,948
2018-08-17T09:26:25.670Z,884
2018-08-17T09:27:06.289Z,900
2018-08-17T09:27:49.154Z,980
2018-08-17T09:28:30.522Z,1052
2018-08-17T09:29:10.825Z,1012
2018-08-17T09:29:51.320Z,1028
2018-08-17T09:30:31.689Z,1152
2018-08-17T09:31:12.275Z,1120
2018-08-17T09:31:52.797Z,1188
2018-08-17T09:35:27.011Z,1712
2018-08-17T09:36:07.493Z,1952
2018-08-17T09:36:47.897Z,1936
2018-08-17T09:37:28.302Z,1852
2018-08-17T09:38:09.692Z,1840
2018-08-17T09:38:49.632Z,1804
2018-08-17T09:39:30.813Z,1764
2018-08-17T09:40:11.268Z,1764
2018-08-17T09:40:53.489Z,1704
2018-08-17T09:41:34.129Z,1728
2018-08-17T09:42:14.635Z,1828
2018-08-17T09:42:55.619Z,1692
2018-08-17T09:43:39.728Z,1596
2018-08-17T09:44:20.670Z,1468
2018-08-17T09:45:01.219Z,1396
2018-08-17T09:45:41.982Z,1432
2018-08-17T09:46:22.560Z,1576
2018-08-17T09:47:04.283Z,1864
2018-08-17T09:47:44.121Z,2072
2018-08-17T09:48:24.538Z,2264
2018-08-17T09:49:05.048Z,2372
2018-08-17T09:49:45.488Z,2428
2018-08-17T09:50:25.895Z,2320
2018-08-17T09:51:06.999Z,1904
2018-08-17T09:51:47.773Z,1856
2018-08-17T09:52:28.647Z,1764
2018-08-17T09:53:08.772Z,1524
2018-08-17T09:53:50.199Z,1404
2018-08-17T09:54:30.845Z,1316
2018-08-17T09:55:11.318Z,1268
2018-08-17T09:55:51.949Z,1228
2018-08-17T09:56:32.379Z,1244
2018-08-17T09:57:13.460Z,1100
2018-08-17T09:57:53.905Z,960
2018-08-17T09:58:35.018Z,892
2018-08-17T09:59:19.344Z,852
2018-08-17T10:00:00.778Z,884
2018-08-17T10:00:41.539Z,924
2018-08-17T10:01:22.322Z,860
2018-08-17T10:02:02.988Z,956
2018-08-17T10:02:43.528Z,1204
2018-08-17T10:03:23.994Z,1376
2018-08-17T10:04:04.678Z,1484
2018-08-17T10:04:45.205Z,1532
2018-08-17T10:05:25.634Z,1456
2018-08-17T10:06:08.347Z,1360
2018-08-17T10:06:47.857Z,1300
2018-08-17T10:07:28.325Z,1228
2018-08-17T10:08:08.754Z,1164
2018-08-17T10:08:49.207Z,1180
2018-08-17T10:09:29.607Z,1192
2018-08-17T10:10:10.018Z,1172
2018-08-17T10:10:50.443Z,1156
2018-08-17T10:11:30.844Z,1148
2018-08-17T10:12:11.252Z,1152
2018-08-17T10:12:51.676Z,1192
2018-08-17T10:13:32.131Z,1256
2018-08-17T10:14:12.503Z,1332
2018-08-17T10:14:53.449Z,1352
2018-08-17T10:15:34.271Z,1380
2018-08-17T10:16:14.758Z,1412
2018-08-17T10:16:55.520Z,1428
2018-08-17T10:17:36.099Z,1460
2018-08-17T10:18:16.596Z,1524
2018-08-17T10:18:57.048Z,1532
2018-08-17T10:19:37.608Z,1512
2018-08-17T10:20:18.149Z,1500
2018-08-17T10:20:58.649Z,1492
2018-08-17T10:21:39.318Z,1468
2018-08-17T10:22:19.441Z,1420
2018-08-17T10:22:59.870Z,1368
2018-08-17T10:23:40.360Z,1328
2018-08-17T10:24:20.894Z,1304
2018-08-17T10:25:01.414Z,1300
2018-08-17T10:25:41.818Z,1300
2018-08-17T10:26:22.312Z,1300
2018-08-17T10:27:02.760Z,1296
2018-08-17T10:27:43.155Z,1292
2018-08-17T10:28:23.599Z,1276
2018-08-17T10:29:03.993Z,1244
2018-08-17T10:29:48.598Z,1200
2018-08-17T11:08:36.185Z,1136
2018-08-17T11:09:28.981Z,1144
2018-08-17T11:10:23.414Z,1032
2018-08-17T11:11:16.188Z,1072
2018-08-17T11:12:08.641Z,1168
2018-08-17T11:13:01.223Z,1124
2018-08-17T11:13:55.043Z,960
2018-08-17T11:14:47.208Z,892
2018-08-17T11:17:32.319Z,1032
2018-08-17T11:18:12.707Z,1144
2018-08-17T11:18:53.027Z,1236
2018-08-17T11:19:33.435Z,1252
2018-08-17T11:20:13.815Z,1216
2018-08-17T11:20:54.281Z,1184
2018-08-17T11:21:34.702Z,1132
2018-08-17T11:22:15.130Z,1060
2018-08-17T11:22:55.556Z,1004
2018-08-17T11:23:35.893Z,1044
2018-08-17T11:24:16.322Z,1136
2018-08-17T11:24:56.697Z,1236
2018-08-17T11:25:37.795Z,1324
2018-08-17T11:26:18.163Z,1400
2018-08-17T11:26:58.502Z,1416
2018-08-17T11:27:38.952Z,1440
2018-08-17T11:28:19.405Z,1464
2018-08-17T11:28:59.809Z,1404
2018-08-17T11:29:40.172Z,1408
2018-08-17T11:30:20.643Z,1408
2018-08-17T11:31:01.027Z,1352
2018-08-17T11:31:41.422Z,1416
2018-08-17T11:32:21.856Z,1452
2018-08-17T11:33:02.255Z,1428
2018-08-17T11:33:42.664Z,1364
2018-08-17T11:34:23.259Z,1332
2018-08-17T11:35:03.452Z,1252
2018-08-17T11:35:43.854Z,1064
2018-08-17T11:36:25.240Z,896
2018-08-17T11:37:05.632Z,852
2018-08-17T11:37:46.025Z,868
2018-08-17T11:38:26.616Z,868
2018-08-17T11:39:06.971Z,908
2018-08-17T11:39:47.375Z,932
2018-08-17T11:40:27.803Z,908
2018-08-17T11:42:40.366Z,692
2018-08-17T11:43:20.834Z,716
2018-08-17T11:44:01.253Z,728
2018-08-17T11:44:41.702Z,752
2018-08-17T11:45:22.090Z,784
2018-08-17T11:46:02.520Z,796
2018-08-17T11:46:42.902Z,804
2018-08-17T11:47:23.300Z,836
2018-08-17T11:48:04.018Z,884
2018-08-17T11:48:44.201Z,952
2018-08-17T11:49:24.666Z,1040
2018-08-17T11:50:05.166Z,1076
2018-08-17T11:50:45.633Z,1104
2018-08-17T11:51:26.037Z,1116
2018-08-17T11:52:06.457Z,1152
2018-08-17T11:52:46.867Z,1188
2018-08-17T11:53:27.351Z,1280
2018-08-17T11:54:07.685Z,1412
2018-08-17T11:54:48.065Z,1512
2018-08-17T11:55:28.485Z,1592
2018-08-17T11:56:08.887Z,1632
2018-08-17T11:56:49.299Z,1608
2018-08-17T11:57:29.733Z,1588
2018-08-17T11:58:10.184Z,1600
2018-08-17T11:58:50.642Z,1512